Elberta, UT

11:12 PM MDT on September 14, 2014 (GMT -0600)
Eagle Park | Change Station
CLOSE
Current Station
Personal Weather Station
Location: Eagle Mountain, UT
Elevation: 4324 ft
Nearby Weather Stations

Elev 4324 ft 40.18 °N, 112.00 °W | Updated 11 minutes ago

Clear
Clear
62.8 °F
Feels Like 62.8 °F
N
4.7
Wind Variable Wind from WSW

Today
High -- | Low -- °F
--% Chance of Precip.
Yesterday
High -- | Low -- °F
Precip. -- in
7:08 AM 7:38 PM
Waning Gibbous, 59% visible
Pressure 30.06 in
Visibility 10.0 miles
Clouds Clear
Dew Point 45 °F
Humidity 53%
Rainfall 0.00 in
Snow Depth 0 in , 0 in , 0 in
UV 0 out of 12
Pollen 5.30 out of 12
Air Quality Not available.
Flu Activity Not available.
METAR KPVU 150455Z AUTO 20003KT 10SM CLR 17/10 A3006 RMK AO1

More Conditions Fewer Conditions

Pressure 30.06 in
Visibility 10.0 miles
Clouds Clear
Dew Point 45 °F
Humidity 53%
Rainfall 0.00 in
Snow Depth 0 in , 0 in , 0 in
UV 0 out of 12
Pollen 5.30 out of 12
Air Quality Not available.
Flu Activity Not available.
METAR KPVU 150455Z AUTO 20003KT 10SM CLR 17/10 A3006 RMK AO1

More Conditions Fewer Conditions

10-Day Weather Forecast

Almanac

Astronomy

Sep. 14, 2014 Rise Set
Actual Time 7:08 AM MDT 7:38 PM MDT
Civil Twilight 6:40 AM MDT 8:05 PM MDT
Nautical Twilight 6:08 AM MDT 8:37 PM MDT
Astronomical Twilight 5:35 AM MDT 9:10 PM MDT
Moon 11:33 PM MDT (9/14) 1:18 PM MDT (9/14)
Length of Visible Light 13h 24m
Length of Day
12h 30m
Tomorrow will be 2m 37s shorter.
Waning Gibbous, 59% of the Moon is Illuminated
Sep 15
Waning Gibbous
Sep 15
Last Quarter
Sep 24
New
Oct 1
First Quarter
Oct 8
Full

Yesterday's Extremes

State Highs State Lows

Community

WunderPhotos

Upload Photos

1,753,411 photos uploaded!

Nearby

Snow Depth

Station Depth Elevation
Louis Meadow 0 in 6700 ft
Thaynes Canyon 0 in 9200 ft
Smith & Morehouse 0 in 7600 ft
Cascade Mountain 0 in 7768 ft
Clear Creek #1 0 in 9200 ft

Earthquake Activity

City Distance Mag. Time & Date
No recent earthquake activity has been reported nearby.
Minimum magnitude displayed is 2.5.

Coastal Water Temperatures

Place Temperature
No Stations Reporting

Nearby Weather Stations